createdAt,value
2018-11-02T00:00:10.384Z,12.37
2018-11-02T00:02:39.478Z,11.03
2018-11-02T00:05:08.387Z,10.83
2018-11-02T00:07:37.171Z,9.73
2018-11-02T00:10:06.420Z,8.93
2018-11-02T00:12:35.528Z,10.17
2018-11-02T00:15:04.661Z,9.10
2018-11-02T00:17:33.536Z,8.90
2018-11-02T00:20:02.650Z,5.80
2018-11-02T00:22:31.425Z,3.37
2018-11-02T00:25:00.236Z,2.00
2018-11-02T00:27:29.114Z,3.83
2018-11-02T00:29:57.936Z,3.20
2018-11-02T00:32:26.841Z,2.83
2018-11-02T00:34:55.709Z,1.63
2018-11-02T00:37:24.731Z,1.70
2018-11-02T00:39:53.515Z,1.40
2018-11-02T00:42:22.313Z,2.13
2018-11-02T00:44:51.085Z,1.33
2018-11-02T00:47:19.871Z,1.93
2018-11-02T00:49:48.681Z,1.30
2018-11-02T00:52:17.520Z,1.43
2018-11-02T00:54:46.628Z,1.40
2018-11-02T00:57:15.468Z,1.70
2018-11-02T00:59:44.294Z,1.70
2018-11-02T01:02:13.055Z,2.27
2018-11-02T01:04:41.969Z,1.93
2018-11-02T01:07:10.720Z,2.33
2018-11-02T01:09:39.508Z,1.70
2018-11-02T01:12:08.480Z,1.70
2018-11-02T01:14:37.889Z,2.10
2018-11-02T01:17:07.888Z,1.80
2018-11-02T01:19:37.225Z,1.67
2018-11-02T01:22:07.718Z,2.30
2018-11-02T01:24:38.041Z,2.13
2018-11-02T01:27:08.113Z,2.40
2018-11-02T01:29:44.674Z,1.73
2018-11-02T01:32:13.802Z,1.80
2018-11-02T01:34:43.045Z,2.57
2018-11-02T01:37:12.302Z,2.20
2018-11-02T01:39:41.512Z,2.93
2018-11-02T01:42:14.846Z,2.13
2018-11-02T01:44:44.363Z,3.30
2018-11-02T01:47:17.762Z,2.67
2018-11-02T01:49:47.799Z,3.17
2018-11-02T01:52:19.681Z,4.13
2018-11-02T01:54:49.944Z,3.13
2018-11-02T01:57:19.531Z,3.03
2018-11-02T01:59:51.460Z,3.87
2018-11-02T02:02:21.765Z,5.27
2018-11-02T02:04:54.500Z,5.40
2018-11-02T02:07:24.114Z,5.17
2018-11-02T02:09:52.996Z,5.50
2018-11-02T02:12:21.864Z,5.70
2018-11-02T02:14:50.661Z,6.87
2018-11-02T02:17:19.482Z,6.23
2018-11-02T02:19:48.369Z,6.43
2018-11-02T02:22:17.236Z,6.87
2018-11-02T02:24:46.053Z,5.20
2018-11-02T02:27:14.851Z,6.07
2018-11-02T02:29:43.846Z,5.63
2018-11-02T02:32:13.729Z,4.83
2018-11-02T02:34:42.600Z,4.30
2018-11-02T02:37:12.624Z,5.73
2018-11-02T02:39:41.454Z,4.73
2018-11-02T02:42:10.225Z,4.80
2018-11-02T02:44:39.971Z,6.70
2018-11-02T02:47:08.968Z,4.77
2018-11-02T02:49:37.712Z,5.53
2018-11-02T02:52:06.617Z,6.17
2018-11-02T02:54:35.475Z,4.77
2018-11-02T02:57:04.473Z,5.17
2018-11-02T02:59:33.755Z,4.80
2018-11-02T03:02:02.592Z,4.90
2018-11-02T03:04:31.462Z,5.83
2018-11-02T03:07:00.396Z,7.10
2018-11-02T03:09:29.299Z,5.20
2018-11-02T03:11:58.089Z,5.67
2018-11-02T03:14:26.892Z,5.33
2018-11-02T03:16:55.788Z,5.70
2018-11-02T03:19:25.117Z,5.50
2018-11-02T03:21:53.927Z,6.17
2018-11-02T03:24:22.744Z,6.37
2018-11-02T03:26:51.625Z,5.07
2018-11-02T03:29:20.476Z,7.17
2018-11-02T03:31:49.372Z,5.60
2018-11-02T03:34:18.180Z,4.87
2018-11-02T03:36:46.960Z,5.30
2018-11-02T03:39:15.819Z,5.30
2018-11-02T03:41:44.632Z,5.33
2018-11-02T03:44:14.023Z,5.33
2018-11-02T03:46:42.828Z,5.60
2018-11-02T03:49:12.353Z,6.00
2018-11-02T03:51:41.232Z,5.77
2018-11-02T03:54:10.916Z,5.53
2018-11-02T03:56:39.727Z,5.83
2018-11-02T03:59:09.257Z,5.57
2018-11-02T04:01:38.241Z,5.60
2018-11-02T04:04:07.048Z,5.13
2018-11-02T04:06:35.922Z,5.03
2018-11-02T04:09:06.376Z,5.83
2018-11-02T04:11:35.312Z,5.00
2018-11-02T04:14:04.140Z,5.57
2018-11-02T04:16:33.096Z,5.93
2018-11-02T04:19:01.944Z,4.70
2018-11-02T04:21:34.989Z,5.57
2018-11-02T04:24:03.779Z,6.10
2018-11-02T04:26:32.989Z,5.57
2018-11-02T04:29:01.768Z,4.93
2018-11-02T04:31:30.681Z,5.23
2018-11-02T04:33:59.520Z,6.73
2018-11-02T04:36:34.572Z,4.67
2018-11-02T04:39:03.536Z,5.10
2018-11-02T04:41:32.397Z,6.60
2018-11-02T04:44:08.580Z,4.60
2018-11-02T04:46:39.088Z,4.50
2018-11-02T04:49:08.329Z,5.47
2018-11-02T04:51:37.357Z,5.33
2018-11-02T04:54:06.219Z,5.90
2018-11-02T04:56:35.044Z,5.60
2018-11-02T04:59:03.831Z,6.43
2018-11-02T05:01:32.626Z,5.40
2018-11-02T05:04:01.410Z,5.03
2018-11-02T05:06:30.220Z,5.40
2018-11-02T05:08:59.007Z,5.60
2018-11-02T05:11:27.851Z,6.00
2018-11-02T05:13:56.588Z,4.80
2018-11-02T05:16:25.383Z,4.67
2018-11-02T05:18:54.256Z,5.63
2018-11-02T05:21:23.092Z,5.57
2018-11-02T05:23:51.900Z,5.10
2018-11-02T05:26:20.716Z,4.43
2018-11-02T05:28:49.548Z,4.87
2018-11-02T05:31:18.681Z,5.60
2018-11-02T05:33:47.415Z,4.90
2018-11-02T05:36:16.504Z,4.13
2018-11-02T05:38:45.255Z,5.23
2018-11-02T05:41:14.054Z,5.33
2018-11-02T05:43:44.777Z,5.83
2018-11-02T05:46:13.554Z,5.13
2018-11-02T05:48:42.340Z,4.73
2018-11-02T05:51:11.169Z,5.20
2018-11-02T05:53:39.961Z,8.00
2018-11-02T05:56:15.327Z,5.50
2018-11-02T05:58:44.053Z,6.03
2018-11-02T06:01:12.853Z,4.67
2018-11-02T06:03:41.611Z,6.27
2018-11-02T06:06:10.589Z,5.43
2018-11-02T06:08:39.481Z,6.30
2018-11-02T06:11:08.602Z,5.40
2018-11-02T06:13:37.376Z,7.43
2018-11-02T06:16:06.151Z,7.37
2018-11-02T06:18:34.914Z,13.47
2018-11-02T06:21:34.908Z,10.60
2018-11-02T06:24:03.829Z,18.40
2018-11-02T06:26:32.589Z,20.60
2018-11-02T06:29:01.364Z,21.77
2018-11-02T06:31:30.131Z,23.97
2018-11-02T06:33:59.002Z,24.70
2018-11-02T06:36:27.821Z,20.87
2018-11-02T06:38:56.640Z,16.03
2018-11-02T06:41:25.347Z,16.10
2018-11-02T06:43:54.100Z,15.00
2018-11-02T06:46:22.876Z,19.20
2018-11-02T06:48:51.739Z,12.40
2018-11-02T06:51:20.487Z,32.77
2018-11-02T06:53:49.268Z,16.80
2018-11-02T06:56:18.040Z,42.97
2018-11-02T06:58:46.966Z,23.37
2018-11-02T07:01:15.805Z,12.97
2018-11-02T07:03:44.687Z,13.40
2018-11-02T07:06:13.455Z,12.07
2018-11-02T07:08:42.354Z,10.90
2018-11-02T07:11:11.142Z,11.40
2018-11-02T07:13:39.913Z,10.70
2018-11-02T07:16:08.696Z,18.03
2018-11-02T07:18:37.471Z,44.43
2018-11-02T07:21:06.289Z,66.23
2018-11-02T07:23:35.062Z,43.27
2018-11-02T07:26:03.882Z,16.67
2018-11-02T07:28:32.653Z,17.03
2018-11-02T07:31:01.432Z,14.53
2018-11-02T07:33:30.212Z,17.80
2018-11-02T07:35:59.009Z,16.77
2018-11-02T07:38:27.764Z,20.13
2018-11-02T07:40:56.523Z,36.07
2018-11-02T07:43:25.424Z,29.83
2018-11-02T07:45:54.204Z,53.47
2018-11-02T07:48:22.979Z,36.43
2018-11-02T07:50:51.747Z,42.23
2018-11-02T07:53:20.543Z,24.73
2018-11-02T07:55:49.316Z,16.90
2018-11-02T07:58:18.087Z,15.20
2018-11-02T08:00:46.843Z,17.93
2018-11-02T08:03:15.692Z,17.50
2018-11-02T08:05:44.447Z,25.43
2018-11-02T08:08:13.239Z,26.67
2018-11-02T08:10:41.991Z,21.57
2018-11-02T08:13:10.760Z,31.60
2018-11-02T08:15:39.540Z,30.03
2018-11-02T08:18:08.320Z,19.63
2018-11-02T08:20:37.116Z,14.17
2018-11-02T08:23:05.928Z,10.00
2018-11-02T08:25:34.689Z,10.60
2018-11-02T08:28:03.476Z,8.77
2018-11-02T08:30:32.286Z,9.60
2018-11-02T08:33:01.077Z,9.53
2018-11-02T08:35:29.847Z,5.90
2018-11-02T08:37:58.635Z,8.10
2018-11-02T08:40:27.393Z,11.20
2018-11-02T08:42:56.184Z,7.83
2018-11-02T08:45:24.968Z,6.63
2018-11-02T08:47:53.744Z,6.80
2018-11-02T08:50:22.496Z,5.77
2018-11-02T08:52:51.268Z,6.13
2018-11-02T08:55:20.033Z,7.10
2018-11-02T08:57:48.904Z,6.10
2018-11-02T09:00:17.715Z,6.17
2018-11-02T09:02:46.404Z,7.03
2018-11-02T09:05:15.167Z,5.90
2018-11-02T09:07:43.948Z,5.70
2018-11-02T09:10:12.875Z,6.87
2018-11-02T09:12:41.652Z,8.33
2018-11-02T09:15:10.411Z,7.03
2018-11-02T09:17:39.184Z,5.67
2018-11-02T09:20:07.950Z,8.80
2018-11-02T09:22:36.747Z,5.47
2018-11-02T09:25:07.781Z,5.30
2018-11-02T09:27:36.655Z,8.50
2018-11-02T09:30:09.321Z,5.93
2018-11-02T09:32:38.136Z,5.23
2018-11-02T09:35:06.929Z,6.83
2018-11-02T09:37:35.711Z,5.67
2018-11-02T09:40:05.942Z,6.73
2018-11-02T09:42:34.747Z,8.00
2018-11-02T09:45:03.518Z,5.50
2018-11-02T09:47:32.307Z,6.50
2018-11-02T09:50:01.117Z,5.03
2018-11-02T09:52:29.885Z,5.77
2018-11-02T09:54:58.667Z,7.27
2018-11-02T09:57:27.723Z,5.27
2018-11-02T09:59:57.533Z,5.17
2018-11-02T10:02:26.316Z,8.53
2018-11-02T10:04:55.063Z,9.47
2018-11-02T10:07:23.855Z,7.40
2018-11-02T10:09:52.612Z,5.70
2018-11-02T10:12:21.483Z,5.00
2018-11-02T10:14:50.240Z,5.40
2018-11-02T10:17:19.040Z,5.57
2018-11-02T10:19:47.815Z,7.47
2018-11-02T10:22:16.591Z,7.47
2018-11-02T10:24:45.500Z,5.50
2018-11-02T10:27:14.281Z,6.17
2018-11-02T10:29:43.040Z,8.70
2018-11-02T10:32:11.896Z,5.13
2018-11-02T10:34:40.717Z,5.67
2018-11-02T10:37:09.504Z,5.63
2018-11-02T10:39:38.299Z,4.83
2018-11-02T10:42:08.709Z,6.27
2018-11-02T10:44:45.130Z,7.73
2018-11-02T10:47:14.265Z,3.87
2018-11-02T10:49:43.045Z,3.30
2018-11-02T10:52:11.820Z,3.30
2018-11-02T10:54:40.683Z,4.33
2018-11-02T10:57:09.348Z,4.13
2018-11-02T10:59:38.136Z,4.33
2018-11-02T11:02:06.952Z,3.63
2018-11-02T11:04:36.170Z,4.67
2018-11-02T11:07:05.305Z,7.07
2018-11-02T11:09:34.101Z,3.73
2018-11-02T11:12:02.947Z,2.80
2018-11-02T11:14:31.803Z,5.97
2018-11-02T11:17:00.600Z,4.83
2018-11-02T11:19:29.392Z,6.43
2018-11-02T11:21:58.176Z,2.60
2018-11-02T11:24:26.991Z,3.77
2018-11-02T11:26:55.867Z,3.03
2018-11-02T11:29:24.714Z,9.40
2018-11-02T11:31:53.477Z,9.47
2018-11-02T11:34:22.276Z,7.57
2018-11-02T11:36:51.044Z,3.37
2018-11-02T11:39:19.861Z,3.80
2018-11-02T11:41:48.693Z,3.43
2018-11-02T11:44:17.489Z,5.97
2018-11-02T11:46:46.352Z,6.80
2018-11-02T11:49:15.228Z,8.53
2018-11-02T11:51:43.884Z,4.07
2018-11-02T11:54:12.684Z,5.10
2018-11-02T11:56:41.443Z,4.33
2018-11-02T11:59:10.255Z,6.93
2018-11-02T12:01:39.057Z,7.37
2018-11-02T12:04:07.874Z,9.77
2018-11-02T12:06:36.847Z,5.00
2018-11-02T12:09:06.244Z,6.87
2018-11-02T12:11:35.065Z,3.60
2018-11-02T12:14:03.817Z,5.03
2018-11-02T12:16:32.612Z,3.97
2018-11-02T12:19:01.428Z,4.53
2018-11-02T12:21:30.233Z,5.30
2018-11-02T12:23:59.027Z,3.50
2018-11-02T12:26:27.803Z,3.50
2018-11-02T12:28:56.704Z,3.53
2018-11-02T12:31:25.411Z,3.67
2018-11-02T12:33:54.228Z,4.33
2018-11-02T12:36:22.998Z,6.20
2018-11-02T12:38:51.792Z,4.47
2018-11-02T12:41:20.659Z,3.77
2018-11-02T12:43:49.547Z,3.17
2018-11-02T12:46:19.064Z,2.93
2018-11-02T12:48:48.539Z,3.47
2018-11-02T12:51:17.133Z,3.17
2018-11-02T12:53:45.904Z,2.63
2018-11-02T12:56:14.727Z,2.93
2018-11-02T12:58:43.511Z,3.10
2018-11-02T13:01:12.300Z,3.23
2018-11-02T13:03:41.068Z,2.60
2018-11-02T13:06:09.922Z,5.40
2018-11-02T13:08:38.692Z,4.57
2018-11-02T13:11:07.528Z,4.60
2018-11-02T13:13:36.323Z,3.87
2018-11-02T13:16:05.294Z,5.37
2018-11-02T13:18:33.967Z,7.47
2018-11-02T13:21:02.800Z,6.93
2018-11-02T13:23:31.568Z,4.87
2018-11-02T13:26:00.497Z,4.47
2018-11-02T13:28:29.217Z,5.00
2018-11-02T13:30:58.126Z,3.63
2018-11-02T13:33:26.784Z,8.60
2018-11-02T13:35:55.584Z,6.63
2018-11-02T13:38:24.360Z,21.53
2018-11-02T13:40:53.175Z,20.77
2018-11-02T13:43:22.033Z,14.17
2018-11-02T13:45:50.791Z,15.73
2018-11-02T13:48:19.609Z,10.73
2018-11-02T13:50:48.384Z,9.83
2018-11-02T13:53:17.164Z,6.80
2018-11-02T13:55:45.923Z,6.00
2018-11-02T13:58:14.695Z,10.07
2018-11-02T14:00:43.459Z,8.30
2018-11-02T14:03:12.225Z,8.53
2018-11-02T14:05:40.999Z,8.20
2018-11-02T14:08:09.820Z,8.50
2018-11-02T14:10:38.571Z,11.47
2018-11-02T14:13:07.355Z,11.43
2018-11-02T14:15:36.145Z,8.57
2018-11-02T14:18:05.047Z,13.47
2018-11-02T14:20:33.824Z,10.20
2018-11-02T14:23:02.608Z,8.33
2018-11-02T14:25:31.388Z,7.07
2018-11-02T14:28:00.163Z,5.73
2018-11-02T14:30:28.947Z,5.37
2018-11-02T14:32:57.776Z,6.27
2018-11-02T14:35:26.536Z,5.00
2018-11-02T14:37:55.303Z,4.40
2018-11-02T14:40:24.068Z,5.00
2018-11-02T14:42:52.877Z,4.67
2018-11-02T14:45:21.639Z,7.37
2018-11-02T14:47:50.421Z,4.97
2018-11-02T14:50:19.162Z,4.67
2018-11-02T14:52:47.938Z,4.90
2018-11-02T14:55:16.680Z,4.73
2018-11-02T14:57:45.473Z,5.40
2018-11-02T15:00:14.259Z,4.17
2018-11-02T15:02:43.004Z,4.00
2018-11-02T15:05:13.012Z,6.13
2018-11-02T15:07:42.423Z,5.13
2018-11-02T15:10:11.264Z,17.27
2018-11-02T15:12:40.329Z,7.83
2018-11-02T15:15:09.452Z,5.10
2018-11-02T15:17:38.375Z,7.83
2018-11-02T15:20:09.141Z,9.87
2018-11-02T15:22:37.897Z,9.77
2018-11-02T15:25:06.971Z,9.33
2018-11-02T15:27:35.759Z,7.93
2018-11-02T15:30:06.401Z,7.73
2018-11-02T15:32:35.336Z,6.63
2018-11-02T15:35:05.195Z,7.63
2018-11-02T15:37:33.971Z,7.00
2018-11-02T15:40:02.748Z,8.13
2018-11-02T15:42:31.521Z,6.90
2018-11-02T15:45:00.485Z,7.27
2018-11-02T15:47:29.308Z,9.27
2018-11-02T15:49:58.079Z,6.67
2018-11-02T15:52:26.844Z,9.67
2018-11-02T15:54:55.588Z,11.60
2018-11-02T15:57:24.473Z,11.00
2018-11-02T15:59:53.268Z,8.87
2018-11-02T16:02:22.027Z,7.93
2018-11-02T16:04:50.820Z,9.47
2018-11-02T16:07:19.608Z,7.03
2018-11-02T16:09:48.385Z,9.60
2018-11-02T16:12:17.180Z,8.80
2018-11-02T16:14:45.944Z,13.23
2018-11-02T16:17:14.730Z,17.77
2018-11-02T16:19:43.495Z,12.57
2018-11-02T16:22:12.475Z,9.03
2018-11-02T16:24:41.241Z,14.77
2018-11-02T16:27:10.113Z,12.60
2018-11-02T16:29:38.880Z,10.93
2018-11-02T16:32:07.659Z,14.03
2018-11-02T16:34:36.428Z,18.77
2018-11-02T16:37:05.501Z,17.67
2018-11-02T16:39:34.255Z,13.70
2018-11-02T16:42:03.051Z,11.43
2018-11-02T16:44:31.897Z,13.77
2018-11-02T16:47:00.655Z,16.67
2018-11-02T16:49:29.440Z,10.83
2018-11-02T16:51:58.312Z,62.13
2018-11-02T16:54:27.154Z,30.80
2018-11-02T16:56:55.863Z,29.80
2018-11-02T16:59:24.655Z,19.57
2018-11-02T17:01:53.420Z,17.77
2018-11-02T17:04:22.287Z,16.30
2018-11-02T17:06:51.060Z,10.77
2018-11-02T17:09:19.842Z,8.77
2018-11-02T17:11:48.605Z,8.60
2018-11-02T17:14:17.435Z,8.17
2018-11-02T17:16:46.212Z,8.03
2018-11-02T17:19:15.012Z,10.00
2018-11-02T17:21:43.825Z,10.80
2018-11-02T17:24:12.593Z,10.93
2018-11-02T17:26:41.380Z,11.03
2018-11-02T17:29:10.216Z,9.83
2018-11-02T17:31:38.972Z,7.53
2018-11-02T17:34:07.765Z,7.30
2018-11-02T17:36:36.591Z,14.10
2018-11-02T17:39:08.025Z,12.33
2018-11-02T17:41:36.938Z,8.73
2018-11-02T17:44:06.247Z,9.43
2018-11-02T17:46:35.123Z,8.97
2018-11-02T17:49:04.080Z,9.60
2018-11-02T17:51:32.847Z,7.17
2018-11-02T17:54:01.628Z,11.43
2018-11-02T17:56:30.392Z,7.47
2018-11-02T17:58:59.172Z,8.43
2018-11-02T18:01:27.997Z,10.40
2018-11-02T18:03:56.767Z,9.37
2018-11-02T18:06:25.516Z,6.87
2018-11-02T18:08:54.419Z,9.40
2018-11-02T18:11:23.164Z,9.37
2018-11-02T18:13:51.943Z,9.30
2018-11-02T18:16:20.702Z,7.70
2018-11-02T18:18:49.578Z,8.10
2018-11-02T18:21:18.247Z,6.90
2018-11-02T18:23:47.068Z,8.63
2018-11-02T18:26:15.828Z,11.67
2018-11-02T18:28:44.611Z,12.03
2018-11-02T18:31:13.403Z,12.90
2018-11-02T18:33:42.955Z,14.60
2018-11-02T18:36:11.732Z,16.60
2018-11-02T18:38:40.521Z,14.33
2018-11-02T18:41:09.345Z,14.33
2018-11-02T18:43:38.143Z,25.90
2018-11-02T18:46:06.957Z,30.23
2018-11-02T18:48:35.740Z,36.50
2018-11-02T18:51:04.677Z,39.03
2018-11-02T18:53:33.471Z,33.30
2018-11-02T18:56:02.248Z,28.77
2018-11-02T18:58:31.031Z,24.97
2018-11-02T19:00:59.808Z,21.67
2018-11-02T19:03:28.584Z,25.43
2018-11-02T19:05:57.348Z,27.77
2018-11-02T19:08:26.132Z,41.83
2018-11-02T19:10:54.936Z,39.00
2018-11-02T19:13:23.849Z,18.23
2018-11-02T19:15:52.562Z,15.33
2018-11-02T19:18:21.317Z,19.23
2018-11-02T19:20:50.099Z,19.67
2018-11-02T19:23:18.887Z,17.80
2018-11-02T19:25:47.657Z,18.27
2018-11-02T19:28:16.456Z,15.90
2018-11-02T19:30:45.283Z,15.87
2018-11-02T19:33:14.084Z,17.23
2018-11-02T19:35:42.870Z,14.40
2018-11-02T19:38:11.947Z,16.87
2018-11-02T19:40:40.455Z,48.43
2018-11-02T19:43:09.245Z,29.63
2018-11-02T19:45:38.040Z,16.27
2018-11-02T19:48:07.160Z,15.13
2018-11-02T19:50:35.960Z,53.47
2018-11-02T19:53:04.867Z,95.03
2018-11-02T19:55:33.648Z,45.47
2018-11-02T19:58:02.505Z,17.97
2018-11-02T20:00:31.272Z,20.03
2018-11-02T20:03:00.307Z,26.97
2018-11-02T20:05:29.068Z,20.73
2018-11-02T20:07:57.837Z,16.37
2018-11-02T20:10:26.620Z,13.70
2018-11-02T20:12:55.391Z,12.50
2018-11-02T20:15:24.180Z,13.63
2018-11-02T20:17:53.177Z,12.00
2018-11-02T20:20:21.877Z,12.73
2018-11-02T20:22:50.644Z,11.80
2018-11-02T20:25:19.420Z,13.07
2018-11-02T20:27:48.205Z,11.73
2018-11-02T20:30:19.195Z,12.17
2018-11-02T20:32:47.981Z,12.80
2018-11-02T20:35:16.776Z,15.20
2018-11-02T20:37:45.871Z,14.00
2018-11-02T20:40:16.367Z,11.87
2018-11-02T20:42:45.544Z,14.20
2018-11-02T20:45:14.689Z,16.27
2018-11-02T20:47:51.065Z,18.50
2018-11-02T20:50:19.855Z,14.47
2018-11-02T20:52:48.867Z,11.57
2018-11-02T20:55:17.897Z,11.97
2018-11-02T20:57:46.650Z,11.93
2018-11-02T21:00:17.683Z,12.53
2018-11-02T21:02:46.577Z,14.87
2018-11-02T21:05:16.420Z,12.10
2018-11-02T21:07:45.692Z,15.47
2018-11-02T21:10:15.541Z,15.43
2018-11-02T21:12:44.348Z,13.67
2018-11-02T21:15:15.320Z,18.50
2018-11-02T21:17:44.117Z,14.43
2018-11-02T21:20:14.347Z,13.33
2018-11-02T21:22:43.368Z,13.43
2018-11-02T21:25:12.773Z,13.67
2018-11-02T21:27:42.264Z,15.90
2018-11-02T21:30:13.420Z,14.00
2018-11-02T21:32:42.628Z,16.43
2018-11-02T21:35:11.407Z,12.53
2018-11-02T21:37:40.219Z,15.30
2018-11-02T21:40:11.788Z,17.63
2018-11-02T21:42:40.708Z,17.10
2018-11-02T21:45:09.661Z,17.47
2018-11-02T21:47:38.419Z,14.43
2018-11-02T21:50:07.583Z,16.80
2018-11-02T21:52:36.368Z,27.10
2018-11-02T21:55:05.663Z,24.80
2018-11-02T21:57:34.491Z,22.07
2018-11-02T22:00:03.468Z,17.37
2018-11-02T22:02:32.248Z,20.40
2018-11-02T22:05:01.030Z,16.60
2018-11-02T22:07:29.796Z,12.90
2018-11-02T22:09:58.564Z,16.63
2018-11-02T22:12:27.490Z,13.33
2018-11-02T22:14:56.256Z,12.63
2018-11-02T22:17:25.082Z,15.23
2018-11-02T22:19:53.848Z,11.43
2018-11-02T22:22:22.639Z,11.00
2018-11-02T22:24:51.412Z,11.13
2018-11-02T22:27:20.423Z,13.33
2018-11-02T22:29:49.103Z,13.73
2018-11-02T22:32:17.991Z,16.70
2018-11-02T22:34:46.843Z,13.90
2018-11-02T22:37:15.711Z,18.23
2018-11-02T22:39:44.510Z,14.70
2018-11-02T22:42:13.441Z,16.10
2018-11-02T22:44:42.231Z,12.00
2018-11-02T22:47:11.103Z,11.63
2018-11-02T22:49:39.953Z,11.47
2018-11-02T22:52:08.712Z,12.70
2018-11-02T22:54:37.612Z,16.30
2018-11-02T22:57:06.533Z,16.23
2018-11-02T22:59:35.328Z,13.50
2018-11-02T23:02:04.242Z,13.47
2018-11-02T23:04:33.028Z,19.13
2018-11-02T23:07:01.990Z,20.77
2018-11-02T23:09:30.755Z,13.60
2018-11-02T23:11:59.544Z,13.60
2018-11-02T23:14:28.402Z,14.70
2018-11-02T23:16:57.408Z,15.93
2018-11-02T23:19:26.388Z,15.83
2018-11-02T23:21:55.348Z,15.70
2018-11-02T23:24:24.166Z,19.23
2018-11-02T23:26:53.143Z,21.00
2018-11-02T23:29:22.078Z,18.60
2018-11-02T23:31:50.867Z,16.47
2018-11-02T23:34:19.641Z,15.33
2018-11-02T23:36:48.428Z,14.17
2018-11-02T23:39:17.217Z,12.37
2018-11-02T23:41:46.048Z,14.20
2018-11-02T23:44:15.552Z,12.60
2018-11-02T23:46:44.367Z,15.50
2018-11-02T23:49:13.133Z,14.63
2018-11-02T23:51:41.976Z,18.20
2018-11-02T23:54:10.924Z,18.10
2018-11-02T23:56:39.682Z,16.27
2018-11-02T23:59:08.460Z,12.83
